Tropical Cyclones
[Index]
Main Index Home Page Stock Weather Photos Extreme Storms Discussion Storm News and Storm Chasing Reports Tropical Cyclones / Hurricanes / Typhoons Weather Data and Links Wild Fires / Bushfires Weather Observation Techniques Weather Picture Catalogue Tornado Pictures and Reports Stock Video Footage and DVDs for sale
Season 1995-1996 Tropical Cyclone GERTIE Track Map
Season 1995-1996 Summaries: [BoM-AU] [JTWC-AU] [JTWC-SIO] [JTWC-SPAC] [JTWC-SH]
<<- Previous TC | BoM 1995-1996 Season | Next TC ->>

click for intensity scale information  Lat/long Grid: Show Hide

 Date Labels: Show Hide

Bureau of Meteorology Tropical Cyclone Data

Name: GERTIE
Number: 781 / 199596_04

17 Dec 1995 07:00 UTC to 24 Dec 1995 13:00 UTC

    date/time    lat    long    hPa   cat  kts
1995-12-17 07   13.2   125.5   1000         27          
1995-12-17 10   13.4   125.1   1000         27          
1995-12-17 13   13.6   124.7   1000         27          
1995-12-17 16   13.8   124.3   1000         27          
1995-12-17 19   14.1   123.9    998         29          
1995-12-17 22   14.4   123.3    998         29          
1995-12-18 01   14.7   122.8    998         29          
1995-12-18 04   15.0   122.4    995    1    35          
1995-12-18 07   15.3   122.1    990    1    41          
1995-12-18 10   15.5   121.8    985    2    47          
1995-12-18 13   15.7   121.6    985    2    47          
1995-12-18 16   16.0   121.4    980    2    54          
1995-12-18 19   16.3   121.2    980    2    54          
1995-12-18 22   16.8   120.9    975    2    60          
1995-12-19 01   17.4   120.7    975    2    60          
1995-12-19 04   17.9   120.3    970    3    66          
1995-12-19 07   18.2   119.8    970    3    66          
1995-12-19 10   18.2   119.9    965    3    70          
1995-12-19 13   18.4   120.0    965    3    70          
1995-12-19 16   18.7   120.0    965    3    70          
1995-12-19 19   19.1   120.4    965    3    70          
1995-12-19 22   19.4   120.6    965    3    70          
1995-12-20 01   19.8   120.9    965    3    70          
1995-12-20 04   20.1   121.2    970    3    66          
1995-12-20 07   20.5   121.4    970    3    66          
1995-12-20 10   20.9   121.9    975    2    60          
1995-12-20 13   21.3   122.4    980    2    54          
1995-12-20 16   21.8   122.9    985    2    47          
1995-12-20 19   22.2   123.5    990    1    41          
1995-12-20 22   22.6   124.4    990    1    41          
1995-12-21 01   23.1   125.2    990    1    41          
1995-12-21 04   23.5   126.3    990    1    41          
1995-12-21 07   23.9   127.3    990    1    41          
1995-12-21 10   24.4   128.2    990    1    41          
1995-12-21 13   24.7   129.2    990    1    41          
1995-12-21 16   25.2   130.2    990    1    41          
1995-12-21 19   25.8   131.8    992    1    39          
1995-12-21 22   26.3   133.4    992    1    39          
1995-12-22 01   26.6   134.8    994    1    35          
1995-12-22 13   27.0   141.0    996         33          
1995-12-23 01   25.0   149.0    996         33          
1995-12-23 13   26.0   154.0    994    1    35          
1995-12-24 01   24.0   157.0    990    1    41          
1995-12-24 13   23.0   163.0    990    1    41          
Winds are 10-min average.

Tropical cyclone tracks developed by Michael Bath using data from the Bureau of Meteorology and Google Maps.


[Australian Severe Weather index] [Copyright Notice] [Email Contacts] [Search This Site] [Privacy Policy]
Document: tropical_cyclone_gertie.htm Updated: 30 May 2013